createdAt,value
2023-04-03T00:00:25.704Z,0.60
2023-04-03T00:01:25.697Z,0.58
2023-04-03T00:02:25.722Z,0.43
2023-04-03T00:03:25.679Z,0.55
2023-04-03T00:04:25.758Z,0.56
2023-04-03T00:05:25.651Z,0.39
2023-04-03T00:06:25.649Z,0.73
2023-04-03T00:07:25.653Z,0.67
2023-04-03T00:08:25.626Z,0.57
2023-04-03T00:09:25.640Z,0.54
2023-04-03T00:10:25.634Z,0.57
2023-04-03T00:11:25.667Z,0.60
2023-04-03T00:12:25.618Z,0.40
2023-04-03T00:13:25.611Z,0.42
2023-04-03T00:14:25.569Z,0.48
2023-04-03T00:15:25.581Z,0.41
2023-04-03T00:16:25.637Z,0.69
2023-04-03T00:17:25.609Z,0.68
2023-04-03T00:18:25.578Z,0.56
2023-04-03T00:19:25.567Z,0.53
2023-04-03T00:20:25.559Z,0.44
2023-04-03T00:21:25.577Z,0.54
2023-04-03T00:22:25.525Z,0.45
2023-04-03T00:23:25.538Z,0.49
2023-04-03T00:24:25.559Z,0.64
2023-04-03T00:25:25.552Z,0.41
2023-04-03T00:26:25.536Z,0.65
2023-04-03T00:27:25.510Z,0.48
2023-04-03T00:28:25.495Z,0.55
2023-04-03T00:29:25.504Z,0.52
2023-04-03T00:30:25.508Z,0.60
2023-04-03T00:31:25.533Z,0.52
2023-04-03T00:32:25.568Z,0.52
2023-04-03T00:33:25.469Z,0.66
2023-04-03T00:34:25.459Z,0.51
2023-04-03T00:35:25.497Z,0.39
2023-04-03T00:36:25.526Z,0.41
2023-04-03T00:37:25.459Z,0.36
2023-04-03T00:38:25.423Z,0.42
2023-04-03T00:39:25.461Z,0.41
2023-04-03T00:40:25.479Z,0.46
2023-04-03T00:41:25.427Z,0.53
2023-04-03T00:42:25.412Z,0.50
2023-04-03T00:43:25.421Z,0.54
2023-04-03T00:44:25.433Z,0.56
2023-04-03T00:45:25.412Z,0.53
2023-04-03T00:46:25.487Z,0.80
2023-04-03T00:47:25.479Z,0.49
2023-04-03T00:48:25.421Z,0.67
2023-04-03T00:49:25.481Z,0.52
2023-04-03T00:50:25.496Z,0.43
2023-04-03T00:51:25.523Z,0.44
2023-04-03T00:52:25.492Z,0.74
2023-04-03T00:53:25.500Z,0.53
2023-04-03T00:54:25.508Z,0.52
2023-04-03T00:55:25.495Z,0.43
2023-04-03T00:56:25.518Z,0.61
2023-04-03T00:57:25.590Z,0.55
2023-04-03T00:58:25.519Z,0.38
2023-04-03T00:59:25.543Z,0.47
2023-04-03T01:00:25.595Z,0.40
2023-04-03T01:01:25.639Z,0.40
2023-04-03T01:02:25.635Z,0.57
2023-04-03T01:03:25.599Z,0.47
2023-04-03T01:04:25.665Z,0.34
2023-04-03T01:05:25.597Z,0.30
2023-04-03T01:06:26.521Z,0.42
2023-04-03T01:07:25.655Z,0.68
2023-04-03T01:08:25.667Z,0.49
2023-04-03T01:09:25.680Z,0.49
2023-04-03T01:10:25.681Z,0.50
2023-04-03T01:11:25.696Z,0.45
2023-04-03T01:12:25.704Z,0.40
2023-04-03T01:13:25.658Z,0.41
2023-04-03T01:14:25.697Z,0.59
2023-04-03T01:15:25.675Z,0.39
2023-04-03T01:16:25.770Z,0.43
2023-04-03T01:17:25.743Z,0.41
2023-04-03T01:18:25.739Z,0.62
2023-04-03T01:19:25.716Z,0.67
2023-04-03T01:20:25.689Z,0.43
2023-04-03T01:21:25.724Z,0.52
2023-04-03T01:22:25.765Z,0.54
2023-04-03T01:23:25.724Z,0.25
2023-04-03T01:24:25.756Z,0.44
2023-04-03T01:25:25.785Z,0.43
2023-04-03T01:26:25.767Z,0.58
2023-04-03T01:27:25.803Z,0.40
2023-04-03T01:28:25.795Z,0.42
2023-04-03T01:29:26.527Z,0.32
2023-04-03T01:30:25.818Z,0.44
2023-04-03T01:31:25.859Z,0.37
2023-04-03T01:32:25.861Z,0.44
2023-04-03T01:33:25.838Z,0.45
2023-04-03T01:34:25.856Z,0.35
2023-04-03T01:35:25.866Z,0.60
2023-04-03T01:36:25.878Z,0.40
2023-04-03T01:37:25.912Z,0.55
2023-04-03T01:38:25.901Z,0.47
2023-04-03T01:39:25.920Z,0.55
2023-04-03T01:40:25.918Z,0.29
2023-04-03T01:41:25.915Z,0.42
2023-04-03T01:42:25.946Z,0.54
2023-04-03T01:43:25.965Z,0.45
2023-04-03T01:44:25.942Z,0.43
2023-04-03T01:45:25.980Z,0.52
2023-04-03T01:46:25.998Z,0.59
2023-04-03T01:47:26.050Z,0.48
2023-04-03T01:48:26.003Z,0.43
2023-04-03T01:49:26.013Z,0.30
2023-04-03T01:50:26.012Z,0.39
2023-04-03T01:51:26.056Z,0.25
2023-04-03T01:52:26.048Z,0.50
2023-04-03T01:53:26.079Z,0.51
2023-04-03T01:54:26.085Z,0.34
2023-04-03T01:55:26.094Z,0.65
2023-04-03T01:56:26.086Z,0.54
2023-04-03T01:57:26.116Z,0.57
2023-04-03T01:58:26.210Z,0.60
2023-04-03T01:59:26.131Z,0.49
2023-04-03T02:00:26.161Z,0.26
2023-04-03T02:01:26.201Z,0.33
2023-04-03T02:02:26.179Z,0.42
2023-04-03T02:03:26.227Z,0.55
2023-04-03T02:04:26.237Z,0.46
2023-04-03T02:05:26.206Z,0.30
2023-04-03T02:06:26.231Z,0.41
2023-04-03T02:07:26.253Z,0.79
2023-04-03T02:08:26.287Z,0.43
2023-04-03T02:09:26.286Z,0.48
2023-04-03T02:10:26.308Z,0.62
2023-04-03T02:11:26.299Z,0.37
2023-04-03T02:12:26.343Z,0.41
2023-04-03T02:13:26.349Z,0.47
2023-04-03T02:14:26.365Z,0.42
2023-04-03T02:15:26.379Z,0.57
2023-04-03T02:16:26.406Z,0.35
2023-04-03T02:17:26.418Z,0.49
2023-04-03T02:18:26.453Z,0.47
2023-04-03T02:19:26.461Z,0.48
2023-04-03T02:20:26.465Z,0.33
2023-04-03T02:21:26.492Z,0.39
2023-04-03T02:22:26.491Z,0.54
2023-04-03T02:23:26.522Z,0.56
2023-04-03T02:24:26.524Z,0.50
2023-04-03T02:25:26.539Z,0.41
2023-04-03T02:26:26.563Z,0.48
2023-04-03T02:27:26.577Z,0.39
2023-04-03T02:28:26.623Z,0.41
2023-04-03T02:29:26.602Z,0.63
2023-04-03T02:30:26.658Z,0.27
2023-04-03T02:31:26.680Z,0.46
2023-04-03T02:32:26.715Z,0.36
2023-04-03T02:33:26.685Z,0.44
2023-04-03T02:34:26.691Z,0.45
2023-04-03T02:35:26.838Z,0.47
2023-04-03T02:36:26.736Z,0.44
2023-04-03T02:37:26.795Z,0.50
2023-04-03T02:38:26.797Z,0.46
2023-04-03T02:39:26.778Z,0.36
2023-04-03T02:40:26.856Z,0.42
2023-04-03T02:41:26.823Z,0.25
2023-04-03T02:42:26.843Z,0.43
2023-04-03T02:43:26.848Z,0.33
2023-04-03T02:44:26.854Z,0.51
2023-04-03T02:45:26.866Z,0.49
2023-04-03T02:46:26.935Z,0.49
2023-04-03T02:47:26.962Z,0.38
2023-04-03T02:48:26.975Z,0.50
2023-04-03T02:49:26.963Z,0.50
2023-04-03T02:50:26.983Z,0.30
2023-04-03T02:51:26.972Z,0.41
2023-04-03T02:52:26.969Z,0.30
2023-04-03T02:53:26.976Z,0.44
2023-04-03T02:54:27.025Z,0.37
2023-04-03T02:55:27.038Z,0.35
2023-04-03T02:56:27.036Z,0.52
2023-04-03T02:57:27.112Z,0.45
2023-04-03T02:58:27.158Z,0.52
2023-04-03T02:59:27.080Z,0.38
2023-04-03T03:00:27.227Z,0.49
2023-04-03T03:01:27.182Z,0.27
2023-04-03T03:02:27.229Z,0.54
2023-04-03T03:03:27.194Z,0.43
2023-04-03T03:04:27.202Z,0.41
2023-04-03T03:05:27.200Z,0.48
2023-04-03T03:06:27.248Z,0.33
2023-04-03T03:07:28.095Z,0.64
2023-04-03T03:08:27.322Z,0.59
2023-04-03T03:09:27.293Z,0.52
2023-04-03T03:10:27.392Z,0.58
2023-04-03T03:11:27.315Z,0.54
2023-04-03T03:12:27.338Z,0.34
2023-04-03T03:13:27.355Z,0.44
2023-04-03T03:14:27.393Z,0.31
2023-04-03T03:15:27.413Z,0.61
2023-04-03T03:16:27.616Z,0.54
2023-04-03T03:17:27.454Z,0.52
2023-04-03T03:18:27.467Z,0.43
2023-04-03T03:19:27.479Z,0.37
2023-04-03T03:20:27.527Z,0.56
2023-04-03T03:21:27.521Z,0.66
2023-04-03T03:22:27.534Z,0.34
2023-04-03T03:23:27.525Z,0.47
2023-04-03T03:24:27.555Z,0.26
2023-04-03T03:25:27.570Z,0.59
2023-04-03T03:26:27.598Z,0.30
2023-04-03T03:27:27.617Z,0.50
2023-04-03T03:28:27.624Z,0.43
2023-04-03T03:29:27.622Z,0.43
2023-04-03T03:30:27.686Z,0.45
2023-04-03T03:31:27.815Z,0.50
2023-04-03T03:32:27.706Z,0.56
2023-04-03T03:33:27.744Z,0.47
2023-04-03T03:34:27.745Z,0.31
2023-04-03T03:35:27.793Z,0.47
2023-04-03T03:36:27.885Z,0.45
2023-04-03T03:37:27.815Z,0.62
2023-04-03T03:38:27.888Z,0.57
2023-04-03T03:39:27.887Z,0.35
2023-04-03T03:40:27.928Z,0.30
2023-04-03T03:41:27.913Z,0.55
2023-04-03T03:42:27.958Z,0.36
2023-04-03T03:43:27.953Z,0.63
2023-04-03T03:44:27.979Z,0.45
2023-04-03T03:45:27.990Z,0.46
2023-04-03T03:46:27.997Z,0.52
2023-04-03T03:47:28.074Z,0.46
2023-04-03T03:48:28.005Z,0.49
2023-04-03T03:49:28.081Z,0.42
2023-04-03T03:50:28.045Z,0.35
2023-04-03T03:51:28.096Z,0.28
2023-04-03T03:52:28.136Z,0.49
2023-04-03T03:53:28.130Z,0.50
2023-04-03T03:54:28.174Z,0.51
2023-04-03T03:55:28.183Z,0.42
2023-04-03T03:56:28.239Z,0.39
2023-04-03T03:57:28.313Z,0.39
2023-04-03T03:58:28.285Z,0.34
2023-04-03T03:59:28.315Z,0.48
2023-04-03T04:00:28.362Z,0.51
2023-04-03T04:01:28.360Z,0.45
2023-04-03T04:02:28.499Z,0.40
2023-04-03T04:03:28.477Z,0.37
2023-04-03T04:04:28.445Z,0.42
2023-04-03T04:05:28.475Z,0.44
2023-04-03T04:06:28.473Z,0.47
2023-04-03T04:07:28.510Z,0.42
2023-04-03T04:08:28.492Z,0.40
2023-04-03T04:09:28.558Z,0.38
2023-04-03T04:10:28.563Z,0.52
2023-04-03T04:11:28.583Z,0.53
2023-04-03T04:12:28.633Z,0.42
2023-04-03T04:13:28.637Z,0.48
2023-04-03T04:14:28.672Z,0.48
2023-04-03T04:15:28.666Z,0.55
2023-04-03T04:16:28.733Z,0.55
2023-04-03T04:17:28.748Z,0.38
2023-04-03T04:18:28.735Z,0.69
2023-04-03T04:19:28.732Z,0.49
2023-04-03T04:20:28.769Z,0.62
2023-04-03T04:21:28.780Z,0.48
2023-04-03T04:22:28.819Z,0.61
2023-04-03T04:23:28.832Z,0.53
2023-04-03T04:24:28.923Z,0.45
2023-04-03T04:25:28.878Z,0.65
2023-04-03T04:26:28.913Z,0.61
2023-04-03T04:27:28.941Z,0.52
2023-04-03T04:28:28.974Z,0.44
2023-04-03T04:29:28.974Z,0.43
2023-04-03T04:30:28.995Z,0.34
2023-04-03T04:31:29.140Z,0.47
2023-04-03T04:32:29.109Z,0.46
2023-04-03T04:33:29.095Z,0.63
2023-04-03T04:34:29.180Z,0.64
2023-04-03T04:35:29.179Z,0.47
2023-04-03T04:36:29.307Z,0.32
2023-04-03T04:37:29.221Z,0.53
2023-04-03T04:38:29.230Z,0.58
2023-04-03T04:39:29.315Z,0.50
2023-04-03T04:40:29.276Z,0.54
2023-04-03T04:41:29.305Z,0.38
2023-04-03T04:42:29.375Z,0.47
2023-04-03T04:43:29.398Z,0.41
2023-04-03T04:44:29.412Z,0.25
2023-04-03T04:45:29.422Z,0.49
2023-04-03T04:46:29.500Z,0.26
2023-04-03T04:47:29.512Z,0.45
2023-04-03T04:48:31.446Z,0.50
2023-04-03T04:49:29.507Z,0.38
2023-04-03T04:50:29.476Z,0.57
2023-04-03T04:51:35.059Z,0.40
2023-04-03T04:52:30.499Z,0.42
2023-04-03T04:53:29.502Z,0.68
2023-04-03T04:54:29.475Z,0.38
2023-04-03T04:55:29.475Z,0.52
2023-04-03T04:56:29.476Z,0.79
2023-04-03T04:57:29.523Z,0.59
2023-04-03T04:58:29.457Z,0.61
2023-04-03T04:59:29.428Z,1.02
2023-04-03T05:00:29.455Z,0.48
2023-04-03T05:01:29.435Z,0.35
2023-04-03T05:02:29.465Z,0.38
2023-04-03T05:03:29.421Z,0.64
2023-04-03T05:04:29.427Z,0.58
2023-04-03T05:05:29.400Z,0.53
2023-04-03T05:06:29.398Z,0.59
2023-04-03T05:07:29.402Z,0.69
2023-04-03T05:08:29.407Z,0.57
2023-04-03T05:09:29.425Z,0.71
2023-04-03T05:10:29.419Z,0.55
2023-04-03T05:11:29.458Z,0.66
2023-04-03T05:12:29.508Z,0.74
2023-04-03T05:13:29.588Z,0.93
2023-04-03T05:14:29.560Z,0.84
2023-04-03T05:15:29.587Z,0.69
2023-04-03T05:16:29.692Z,0.71
2023-04-03T05:17:29.671Z,0.46
2023-04-03T05:18:29.696Z,0.56
2023-04-03T05:19:29.742Z,0.64
2023-04-03T05:20:29.769Z,0.48
2023-04-03T05:21:29.757Z,0.83
2023-04-03T05:22:29.787Z,0.94
2023-04-03T05:23:29.840Z,0.73
2023-04-03T05:24:29.866Z,0.60
2023-04-03T05:25:29.900Z,0.75
2023-04-03T05:26:29.938Z,0.61
2023-04-03T05:27:29.944Z,0.68
2023-04-03T05:28:29.954Z,0.70
2023-04-03T05:29:29.994Z,0.77
2023-04-03T05:30:30.038Z,0.67
2023-04-03T05:31:30.101Z,0.83
2023-04-03T05:32:30.096Z,0.76
2023-04-03T05:33:30.127Z,0.50
2023-04-03T05:34:30.160Z,0.62
2023-04-03T05:35:30.168Z,0.85
2023-04-03T05:36:30.211Z,0.89
2023-04-03T05:37:30.249Z,0.88
2023-04-03T05:38:30.281Z,0.80
2023-04-03T05:39:30.294Z,0.62
2023-04-03T05:40:30.344Z,0.61
2023-04-03T05:41:30.352Z,0.78
2023-04-03T05:42:30.383Z,0.70
2023-04-03T05:43:30.439Z,0.56
2023-04-03T05:44:30.476Z,0.72
2023-04-03T05:45:30.524Z,0.67
2023-04-03T05:46:30.515Z,0.53
2023-04-03T05:47:30.555Z,0.48
2023-04-03T05:48:30.569Z,0.50
2023-04-03T05:49:30.575Z,0.52
2023-04-03T05:50:30.662Z,0.49
2023-04-03T05:51:30.619Z,0.55
2023-04-03T05:52:30.699Z,0.62
2023-04-03T05:53:30.688Z,0.44
2023-04-03T05:54:30.732Z,0.60
2023-04-03T05:55:30.768Z,0.63
2023-04-03T05:56:30.752Z,0.61
2023-04-03T05:57:30.852Z,0.71
2023-04-03T05:58:30.827Z,0.68
2023-04-03T05:59:30.852Z,0.52
2023-04-03T06:00:30.872Z,0.70
2023-04-03T06:01:30.903Z,0.47
2023-04-03T06:02:30.920Z,0.56
2023-04-03T06:03:31.074Z,0.59
2023-04-03T06:04:31.026Z,0.58
2023-04-03T06:05:30.998Z,0.76
2023-04-03T06:06:31.022Z,0.80
2023-04-03T06:07:31.018Z,0.55
2023-04-03T06:08:31.076Z,0.50
2023-04-03T06:09:31.046Z,0.69
2023-04-03T06:10:31.066Z,0.52
2023-04-03T06:11:31.123Z,0.60
2023-04-03T06:12:31.120Z,0.63
2023-04-03T06:13:31.142Z,0.61
2023-04-03T06:14:31.151Z,0.44
2023-04-03T06:15:31.147Z,0.49
2023-04-03T06:16:31.197Z,0.61
2023-04-03T06:17:31.206Z,0.49
2023-04-03T06:18:31.219Z,0.69
2023-04-03T06:19:31.234Z,0.76
2023-04-03T06:20:31.252Z,0.88
2023-04-03T06:21:31.270Z,0.74
2023-04-03T06:22:31.276Z,0.85
2023-04-03T06:23:31.292Z,0.54
2023-04-03T06:24:31.322Z,0.78
2023-04-03T06:25:31.333Z,0.65
2023-04-03T06:26:31.332Z,0.46
2023-04-03T06:27:31.361Z,0.81
2023-04-03T06:28:31.386Z,0.54
2023-04-03T06:29:31.380Z,0.72
2023-04-03T06:30:31.382Z,0.63
2023-04-03T06:31:31.510Z,0.75
2023-04-03T06:32:31.433Z,0.69
2023-04-03T06:33:31.449Z,1.07
2023-04-03T06:34:31.449Z,0.73
2023-04-03T06:35:31.555Z,0.57
2023-04-03T06:36:31.459Z,0.69
2023-04-03T06:37:31.500Z,0.74
2023-04-03T06:38:31.492Z,0.72
2023-04-03T06:39:31.481Z,0.72
2023-04-03T06:40:31.706Z,0.96
2023-04-03T06:41:31.533Z,0.58
2023-04-03T06:42:31.579Z,0.69
2023-04-03T06:43:32.687Z,0.92
2023-04-03T06:44:31.578Z,0.76
2023-04-03T06:45:31.551Z,0.83
2023-04-03T06:46:31.623Z,0.72
2023-04-03T06:47:31.574Z,0.75
2023-04-03T06:48:31.539Z,0.71
2023-04-03T06:49:31.507Z,0.56
2023-04-03T06:50:31.525Z,0.81
2023-04-03T06:51:31.537Z,1.02
2023-04-03T06:52:31.535Z,0.66
2023-04-03T06:53:31.553Z,1.09
2023-04-03T06:54:31.477Z,0.88
2023-04-03T06:55:31.503Z,0.89
2023-04-03T06:56:31.461Z,1.23
2023-04-03T06:57:31.583Z,1.20
2023-04-03T06:58:31.456Z,1.02
2023-04-03T06:59:31.470Z,1.78
2023-04-03T07:00:31.490Z,1.85
2023-04-03T07:01:31.473Z,2.85
2023-04-03T07:02:31.464Z,1.85
2023-04-03T07:03:31.444Z,1.96
2023-04-03T07:04:31.448Z,1.76
2023-04-03T07:05:31.463Z,1.93
2023-04-03T07:06:31.423Z,2.26
2023-04-03T07:07:31.555Z,3.13
2023-04-03T07:08:31.394Z,2.43
2023-04-03T07:09:31.416Z,2.12
2023-04-03T07:10:31.392Z,2.25
2023-04-03T07:11:31.391Z,2.22
2023-04-03T07:12:31.367Z,2.27
2023-04-03T07:13:31.347Z,2.70
2023-04-03T07:14:31.373Z,3.11
2023-04-03T07:15:31.345Z,2.37
2023-04-03T07:16:31.442Z,2.66
2023-04-03T07:17:31.378Z,2.66
2023-04-03T07:18:31.341Z,2.72
2023-04-03T07:19:31.332Z,2.90
2023-04-03T07:20:31.393Z,2.37
2023-04-03T07:21:31.305Z,2.51
2023-04-03T07:22:31.328Z,2.69
2023-04-03T07:23:31.463Z,2.17
2023-04-03T07:24:31.282Z,2.31
2023-04-03T07:25:31.279Z,2.54
2023-04-03T07:26:31.342Z,2.79
2023-04-03T07:27:31.276Z,2.76
2023-04-03T07:28:31.274Z,2.37
2023-04-03T07:29:31.272Z,2.42
2023-04-03T07:30:31.271Z,2.34
2023-04-03T07:31:31.281Z,2.22
2023-04-03T07:32:31.290Z,2.51
2023-04-03T07:33:31.255Z,2.47
2023-04-03T07:34:31.249Z,2.55
2023-04-03T07:35:31.249Z,2.34
2023-04-03T07:36:31.253Z,2.96
2023-04-03T07:37:31.186Z,2.50
2023-04-03T07:38:31.301Z,2.30
2023-04-03T07:39:31.194Z,2.27
2023-04-03T07:40:31.176Z,2.47
2023-04-03T07:41:31.186Z,2.38
2023-04-03T07:42:31.194Z,2.28
2023-04-03T07:43:31.183Z,1.97
2023-04-03T07:44:31.190Z,1.96
2023-04-03T07:45:31.165Z,2.67
2023-04-03T07:46:31.139Z,2.65
2023-04-03T07:47:31.193Z,2.68
2023-04-03T07:48:31.115Z,2.63
2023-04-03T07:49:31.164Z,2.54
2023-04-03T07:50:31.125Z,2.50
2023-04-03T07:51:31.131Z,2.18
2023-04-03T07:52:31.200Z,3.33
2023-04-03T07:53:31.225Z,4.56
2023-04-03T07:54:31.236Z,5.65
2023-04-03T07:55:32.042Z,18.62
2023-04-03T07:56:31.315Z,11.49
2023-04-03T07:57:31.423Z,13.31
2023-04-03T07:58:31.309Z,12.58
2023-04-03T07:59:31.331Z,13.76
2023-04-03T08:00:31.388Z,12.82
2023-04-03T08:01:31.432Z,13.34
2023-04-03T08:02:31.456Z,13.54
2023-04-03T08:03:31.569Z,17.28
2023-04-03T08:04:31.557Z,16.79
2023-04-03T08:05:31.494Z,17.28
2023-04-03T08:06:44.785Z,17.67
2023-04-03T08:07:32.549Z,18.68
2023-04-03T08:08:31.536Z,19.38
2023-04-03T08:09:31.515Z,17.53
2023-04-03T08:10:31.558Z,17.62
2023-04-03T08:11:31.529Z,18.51
2023-04-03T08:12:31.492Z,16.62
2023-04-03T08:13:31.510Z,16.20
2023-04-03T08:14:31.519Z,16.28
2023-04-03T08:15:31.486Z,16.42
2023-04-03T08:16:31.522Z,14.45
2023-04-03T08:17:31.516Z,15.68
2023-04-03T08:18:31.459Z,15.56
2023-04-03T08:19:31.437Z,15.54
2023-04-03T08:20:31.511Z,14.52
2023-04-03T08:21:31.509Z,13.40
2023-04-03T08:22:31.565Z,13.77
2023-04-03T08:23:31.584Z,15.28
2023-04-03T08:24:31.601Z,13.81
2023-04-03T08:25:31.657Z,12.65
2023-04-03T08:26:31.699Z,14.44
2023-04-03T08:27:32.453Z,13.16
2023-04-03T08:28:31.774Z,12.49
2023-04-03T08:29:33.000Z,11.74
2023-04-03T08:30:31.829Z,12.87
2023-04-03T08:31:31.855Z,11.61
2023-04-03T08:32:31.931Z,12.09
2023-04-03T08:33:31.983Z,11.86
2023-04-03T08:34:32.026Z,11.60
2023-04-03T08:35:32.044Z,11.08
2023-04-03T08:36:32.054Z,10.65
2023-04-03T08:37:32.136Z,11.23
2023-04-03T08:38:32.115Z,12.58
2023-04-03T08:39:32.158Z,11.25
2023-04-03T08:40:32.711Z,10.94
2023-04-03T08:41:32.240Z,10.55
2023-04-03T08:42:32.268Z,10.40
2023-04-03T08:43:32.309Z,10.76
2023-04-03T08:44:32.288Z,10.11
2023-04-03T08:45:32.355Z,9.51
2023-04-03T08:46:32.420Z,10.57
2023-04-03T08:47:32.404Z,10.68
2023-04-03T08:48:32.420Z,8.69
2023-04-03T08:49:32.501Z,10.28
2023-04-03T08:50:32.473Z,9.62
2023-04-03T08:51:32.506Z,9.49
2023-04-03T08:52:32.516Z,9.45
2023-04-03T08:53:32.632Z,9.05
2023-04-03T08:54:33.991Z,10.69
2023-04-03T08:55:32.684Z,9.16
2023-04-03T08:56:32.785Z,8.74
2023-04-03T08:57:32.894Z,8.29
2023-04-03T08:58:32.736Z,8.86
2023-04-03T08:59:32.796Z,9.28
2023-04-03T09:00:32.782Z,8.32
2023-04-03T09:01:32.875Z,8.30
2023-04-03T09:02:32.913Z,8.69
2023-04-03T09:03:32.932Z,8.44
2023-04-03T09:04:32.891Z,8.72
2023-04-03T09:05:32.905Z,7.83
2023-04-03T09:06:32.916Z,8.31
2023-04-03T09:07:32.959Z,8.01
2023-04-03T09:08:32.983Z,8.27
2023-04-03T09:09:32.998Z,8.04
2023-04-03T09:10:33.022Z,8.45
2023-04-03T09:11:33.040Z,7.72
2023-04-03T09:12:33.123Z,7.95
2023-04-03T09:13:33.060Z,9.35
2023-04-03T09:14:33.050Z,7.98
2023-04-03T09:15:38.969Z,8.19
2023-04-03T09:16:34.143Z,8.58
2023-04-03T09:17:33.113Z,7.76
2023-04-03T09:18:34.726Z,7.95
2023-04-03T09:19:33.060Z,8.05
2023-04-03T09:20:33.047Z,8.12
2023-04-03T09:21:33.053Z,8.87
2023-04-03T09:22:36.511Z,8.79
2023-04-03T09:23:34.037Z,8.52
2023-04-03T09:24:33.016Z,8.06
2023-04-03T09:25:33.026Z,8.63
2023-04-03T09:26:33.008Z,8.12
2023-04-03T09:27:33.060Z,8.59
2023-04-03T09:28:38.889Z,7.87
2023-04-03T09:29:33.981Z,8.40
2023-04-03T09:30:32.968Z,8.71
2023-04-03T09:31:33.020Z,8.91
2023-04-03T09:32:33.008Z,8.87
2023-04-03T09:33:32.997Z,8.65
2023-04-03T09:34:32.951Z,9.41
2023-04-03T09:35:44.773Z,8.48
2023-04-03T09:36:33.928Z,7.60
2023-04-03T09:37:32.941Z,8.16
2023-04-03T09:38:32.949Z,7.99
2023-04-03T09:39:32.917Z,8.49
2023-04-03T09:40:32.914Z,7.61
2023-04-03T09:41:32.892Z,8.77
2023-04-03T09:42:32.898Z,7.47
2023-04-03T09:43:32.900Z,7.75
2023-04-03T09:44:32.968Z,8.01
2023-04-03T09:45:32.877Z,7.73
2023-04-03T09:46:32.951Z,6.93
2023-04-03T09:47:32.925Z,7.29
2023-04-03T09:48:32.883Z,7.72
2023-04-03T09:49:32.829Z,7.45
2023-04-03T09:50:32.848Z,7.12
2023-04-03T09:51:32.827Z,7.86
2023-04-03T09:52:32.833Z,8.11
2023-04-03T09:53:32.824Z,7.33
2023-04-03T09:54:32.827Z,7.54
2023-04-03T09:55:32.811Z,9.11
2023-04-03T09:56:32.795Z,7.42
2023-04-03T09:57:32.986Z,9.06
2023-04-03T09:58:42.608Z,7.70
2023-04-03T09:59:33.791Z,7.30
2023-04-03T10:00:32.869Z,7.60
2023-04-03T10:01:32.851Z,7.93
2023-04-03T10:02:32.809Z,6.62
2023-04-03T10:03:34.570Z,7.60
2023-04-03T10:04:32.786Z,7.46
2023-04-03T10:05:32.721Z,6.32
2023-04-03T10:06:32.753Z,6.95
2023-04-03T10:07:32.874Z,7.12
2023-04-03T10:08:32.754Z,7.09
2023-04-03T10:09:32.725Z,6.53
2023-04-03T10:10:32.708Z,7.19
2023-04-03T10:11:32.676Z,7.60
2023-04-03T10:12:32.705Z,6.27
2023-04-03T10:13:36.215Z,7.25
2023-04-03T10:14:33.675Z,6.25
2023-04-03T10:15:32.708Z,6.71
2023-04-03T10:16:32.761Z,6.86
2023-04-03T10:17:32.756Z,6.90
2023-04-03T10:18:32.757Z,6.58
2023-04-03T10:19:32.680Z,6.66
2023-04-03T10:20:32.658Z,6.50
2023-04-03T10:21:32.621Z,6.26
2023-04-03T10:22:32.637Z,6.28
2023-04-03T10:23:32.607Z,7.47
2023-04-03T10:24:32.646Z,7.26
2023-04-03T10:25:32.619Z,7.70
2023-04-03T10:26:32.585Z,5.95
2023-04-03T10:27:32.603Z,6.88
2023-04-03T10:28:32.597Z,7.28
2023-04-03T10:29:32.584Z,6.46
2023-04-03T10:30:32.668Z,5.86
2023-04-03T10:31:32.699Z,6.08
2023-04-03T10:32:32.682Z,6.59
2023-04-03T10:33:32.559Z,6.14
2023-04-03T10:34:32.549Z,6.51
2023-04-03T10:35:32.598Z,6.23
2023-04-03T10:36:32.533Z,5.70
2023-04-03T10:37:32.533Z,6.23
2023-04-03T10:38:32.531Z,6.86
2023-04-03T10:39:32.520Z,5.83
2023-04-03T10:40:32.512Z,6.26
2023-04-03T10:41:32.478Z,6.10
2023-04-03T10:42:32.516Z,5.89
2023-04-03T10:43:32.486Z,6.08
2023-04-03T10:44:32.506Z,6.19
2023-04-03T10:45:32.495Z,6.13
2023-04-03T10:46:32.489Z,5.82
2023-04-03T10:47:34.144Z,6.39
2023-04-03T10:48:32.703Z,6.23
2023-04-03T10:49:32.629Z,6.12
2023-04-03T10:50:32.637Z,6.33
2023-04-03T10:51:32.617Z,6.16
2023-04-03T10:52:32.644Z,5.39
2023-04-03T10:53:32.654Z,5.46
2023-04-03T10:54:32.639Z,5.41
2023-04-03T10:55:32.652Z,5.66
2023-04-03T10:56:32.683Z,4.76
2023-04-03T10:57:32.717Z,5.67
2023-04-03T10:58:32.729Z,5.38
2023-04-03T10:59:32.686Z,5.02
2023-04-03T11:00:32.669Z,5.11
2023-04-03T11:01:32.763Z,5.26
2023-04-03T11:02:32.828Z,5.55
2023-04-03T11:03:32.751Z,4.57
2023-04-03T11:04:32.796Z,5.60
2023-04-03T11:05:32.703Z,5.52
2023-04-03T11:06:32.707Z,4.64
2023-04-03T11:07:32.715Z,5.11
2023-04-03T11:08:32.737Z,5.54
2023-04-03T11:09:32.727Z,5.41
2023-04-03T11:10:32.739Z,4.63
2023-04-03T11:11:32.730Z,5.24
2023-04-03T11:12:32.699Z,4.42
2023-04-03T11:13:32.707Z,4.80
2023-04-03T11:14:32.715Z,4.64
2023-04-03T11:15:32.757Z,4.62
2023-04-03T11:16:40.363Z,5.14
2023-04-03T11:17:33.772Z,4.78
2023-04-03T11:18:32.715Z,4.19
2023-04-03T11:19:32.697Z,4.69
2023-04-03T11:20:32.774Z,4.28
2023-04-03T11:21:32.686Z,4.96
2023-04-03T11:22:32.692Z,4.61
2023-04-03T11:23:45.899Z,4.36
2023-04-03T11:24:33.687Z,4.43
2023-04-03T11:25:32.672Z,3.97
2023-04-03T11:26:32.662Z,4.50
2023-04-03T11:27:32.628Z,4.35
2023-04-03T11:28:32.668Z,5.22
2023-04-03T11:29:35.338Z,4.52
2023-04-03T11:30:32.619Z,4.47
2023-04-03T11:31:32.708Z,4.41
2023-04-03T11:32:32.621Z,4.56
2023-04-03T11:33:32.603Z,3.84
2023-04-03T11:34:32.609Z,3.78
2023-04-03T11:35:32.595Z,3.74
2023-04-03T11:36:35.766Z,3.86
2023-04-03T11:37:32.597Z,3.71
2023-04-03T11:38:32.567Z,3.68
2023-04-03T11:39:32.587Z,3.90
2023-04-03T11:40:32.568Z,3.46
2023-04-03T11:41:32.552Z,3.51
2023-04-03T11:42:32.606Z,4.46
2023-04-03T11:43:32.538Z,3.47
2023-04-03T11:44:32.543Z,3.88
2023-04-03T11:45:32.551Z,3.60
2023-04-03T11:46:32.514Z,4.07
2023-04-03T11:47:32.541Z,4.27
2023-04-03T11:48:32.613Z,3.67
2023-04-03T11:49:32.543Z,3.90
2023-04-03T11:50:32.475Z,4.18
2023-04-03T11:51:32.484Z,3.36
2023-04-03T11:52:32.545Z,3.57
2023-04-03T11:53:32.460Z,4.00
2023-04-03T11:54:38.455Z,3.85
2023-04-03T11:55:33.464Z,3.98
2023-04-03T11:56:32.456Z,3.60
2023-04-03T11:57:32.514Z,3.51
2023-04-03T11:58:32.437Z,3.10
2023-04-03T11:59:32.430Z,3.71
2023-04-03T12:00:32.411Z,4.14
2023-04-03T12:01:32.411Z,3.19
2023-04-03T12:02:36.310Z,4.22
2023-04-03T12:03:33.504Z,3.06
2023-04-03T12:04:32.469Z,3.52
2023-04-03T12:05:32.390Z,3.46
2023-04-03T12:06:32.389Z,3.58
2023-04-03T12:07:32.384Z,3.25
2023-04-03T12:08:32.453Z,3.74
2023-04-03T12:09:32.391Z,3.62
2023-04-03T12:10:32.892Z,3.61
2023-04-03T12:11:32.343Z,3.63
2023-04-03T12:12:32.364Z,3.36
2023-04-03T12:13:32.327Z,3.12
2023-04-03T12:14:32.295Z,3.76
2023-04-03T12:15:32.308Z,3.21
2023-04-03T12:16:32.336Z,3.30
2023-04-03T12:17:32.332Z,3.27
2023-04-03T12:18:33.333Z,3.57
2023-04-03T12:19:41.358Z,3.93
2023-04-03T12:20:33.293Z,3.56
2023-04-03T12:21:32.285Z,4.02
2023-04-03T12:22:32.242Z,3.42
2023-04-03T12:23:32.319Z,3.14
2023-04-03T12:24:32.336Z,3.24
2023-04-03T12:25:32.254Z,3.29
2023-04-03T12:26:41.735Z,3.08
2023-04-03T12:27:33.239Z,3.32
2023-04-03T12:28:32.217Z,2.95
2023-04-03T12:29:32.227Z,2.91
2023-04-03T12:30:32.255Z,3.27
2023-04-03T12:31:32.234Z,3.12
2023-04-03T12:32:32.248Z,2.96
2023-04-03T12:33:32.272Z,3.48
2023-04-03T12:34:32.188Z,3.18
2023-04-03T12:35:32.254Z,2.83
2023-04-03T12:36:32.185Z,2.51
2023-04-03T12:37:32.187Z,2.51
2023-04-03T12:38:32.197Z,3.81
2023-04-03T12:39:32.169Z,3.52
2023-04-03T12:40:32.229Z,3.44
2023-04-03T12:41:32.156Z,3.26
2023-04-03T12:42:32.151Z,3.33
2023-04-03T12:43:32.146Z,3.34
2023-04-03T12:44:32.134Z,2.99
2023-04-03T12:45:32.127Z,3.34
2023-04-03T12:46:32.180Z,3.48
2023-04-03T12:47:32.158Z,2.97
2023-04-03T12:48:32.090Z,3.33
2023-04-03T12:49:32.107Z,3.04
2023-04-03T12:50:32.087Z,3.44
2023-04-03T12:51:32.097Z,3.59
2023-04-03T12:52:32.087Z,3.14
2023-04-03T12:53:32.077Z,3.23
2023-04-03T12:54:32.091Z,2.85
2023-04-03T12:55:32.035Z,2.45
2023-04-03T12:56:33.355Z,3.30
2023-04-03T12:57:32.160Z,2.98
2023-04-03T12:58:32.027Z,2.94
2023-04-03T12:59:32.291Z,3.28
2023-04-03T13:00:32.032Z,3.32
2023-04-03T13:01:32.056Z,3.11
2023-04-03T13:02:32.124Z,3.46
2023-04-03T13:03:32.067Z,3.34
2023-04-03T13:04:32.015Z,3.58
2023-04-03T13:05:32.698Z,2.89
2023-04-03T13:06:31.994Z,3.23
2023-04-03T13:07:31.981Z,2.99
2023-04-03T13:08:31.946Z,3.26
2023-04-03T13:09:32.022Z,3.31
2023-04-03T13:10:31.985Z,3.56
2023-04-03T13:11:32.001Z,2.83
2023-04-03T13:12:32.479Z,3.11
2023-04-03T13:13:32.056Z,3.40
2023-04-03T13:14:32.158Z,3.07
2023-04-03T13:15:32.150Z,3.72
2023-04-03T13:16:32.224Z,3.28